DLH370 LEPA-EDDS
Flight info
| Callsign | DLH370 |
|---|---|
| Flight time | N/A |
| Altitude | 38000 |
| Route | MEROS5A MEROS DCT LAPIT DCT CHELY DCT LUMAS DCT UNANA DCT STP DCT RAPED DCT PIGOS DCT EKSID DCT NOSTA DCT NOPMU DCT PEPAG DCT ABESI DCT UTAVO DCT SOPER N851 ROMIR T125 REUTL REUTL5A |
| Aircraft | A20N/M-SDE2E3FGHIRWXY/LB1 |
Departure
| Time | 2026-05-04 15:31 |
|---|---|
| Airport | Palma de Mallorca Airport (LEPA) |
Arrival
| Time | N/A |
|---|---|
| Airport | Stuttgart Airport (EDDS) |
| Time | Latitude | Longitude | Altitude | Speed | Heading |
|---|---|---|---|---|---|
| 2026-05-04 15:09 | 39.54716 | 2.73664 | 38 ft | 0 kts | 58° |
| 2026-05-04 15:20 | 39.54713 | 2.73658 | 37 ft | 2 kts | 58° |
| 2026-05-04 15:20 | 39.54704 | 2.73639 | 38 ft | 2 kts | 61° |
| 2026-05-04 15:21 | 39.54697 | 2.73620 | 38 ft | 2 kts | 68° |
| 2026-05-04 15:21 | 39.54693 | 2.73600 | 37 ft | 2 kts | 104° |
| 2026-05-04 15:21 | 39.54703 | 2.73583 | 36 ft | 0 kts | 150° |
| 2026-05-04 15:23 | 39.54687 | 2.73595 | 37 ft | 5 kts | 150° |
| 2026-05-04 15:24 | 39.54697 | 2.73752 | 38 ft | 16 kts | 59° |
| 2026-05-04 15:24 | 39.54824 | 2.73992 | 38 ft | 17 kts | 24° |
| 2026-05-04 15:25 | 39.54919 | 2.73962 | 36 ft | 11 kts | 18° |
| 2026-05-04 15:25 | 39.54982 | 2.74002 | 38 ft | 6 kts | 330° |
| 2026-05-04 15:25 | 39.55059 | 2.73941 | 38 ft | 13 kts | 328° |
| 2026-05-04 15:26 | 39.55262 | 2.73781 | 38 ft | 21 kts | 328° |
| 2026-05-04 15:26 | 39.55346 | 2.73714 | 38 ft | 21 kts | 328° |
| 2026-05-04 15:26 | 39.55611 | 2.73510 | 37 ft | 21 kts | 339° |
| 2026-05-04 15:27 | 39.55707 | 2.73614 | 38 ft | 21 kts | 57° |
| 2026-05-04 15:27 | 39.55879 | 2.73975 | 38 ft | 26 kts | 58° |
| 2026-05-04 15:28 | 39.56000 | 2.74231 | 38 ft | 2 kts | 56° |
| 2026-05-04 15:28 | 39.56021 | 2.74251 | 38 ft | 7 kts | 34° |
| 2026-05-04 15:28 | 39.56139 | 2.74336 | 36 ft | 8 kts | 26° |
| 2026-05-04 15:29 | 39.56141 | 2.74337 | 36 ft | 0 kts | 26° |
| 2026-05-04 15:30 | 39.56219 | 2.74250 | 38 ft | 0 kts | 239° |
| 2026-05-04 15:30 | 39.55698 | 2.73158 | 38 ft | 129 kts | 239° |
| 2026-05-04 15:31 | 39.54616 | 2.70769 | 1171 ft | 167 kts | 237° |
| 2026-05-04 15:31 | 39.53986 | 2.69433 | 2013 ft | 183 kts | 237° |
| 2026-05-04 15:32 | 39.51689 | 2.64843 | 4104 ft | 209 kts | 235° |
| 2026-05-04 15:32 | 39.50099 | 2.61778 | 4325 ft | 207 kts | 236° |
| 2026-05-04 15:33 | 39.47696 | 2.59336 | 4715 ft | 247 kts | 208° |
| 2026-05-04 15:34 | 39.42687 | 2.59719 | 7706 ft | 281 kts | 141° |
| 2026-05-04 15:34 | 39.41553 | 2.61848 | 8681 ft | 298 kts | 115° |
| 2026-05-04 15:34 | 39.41495 | 2.67376 | 10467 ft | 326 kts | 81° |
| 2026-05-04 15:35 | 39.42194 | 2.73579 | 11337 ft | 367 kts | 87° |
| 2026-05-04 15:35 | 39.42348 | 2.76859 | 12184 ft | 372 kts | 89° |
| 2026-05-04 15:35 | 39.42423 | 2.80215 | 13104 ft | 375 kts | 91° |
| 2026-05-04 15:36 | 39.42486 | 2.87069 | 14659 ft | 387 kts | 91° |
| 2026-05-04 15:36 | 39.42509 | 2.90583 | 15374 ft | 393 kts | 91° |
| 2026-05-04 15:36 | 39.42534 | 2.94150 | 16102 ft | 399 kts | 91° |
| 2026-05-04 15:37 | 39.42560 | 2.97765 | 16792 ft | 405 kts | 91° |
| 2026-05-04 15:37 | 39.42587 | 3.01441 | 17423 ft | 412 kts | 91° |
| 2026-05-04 15:37 | 39.42614 | 3.05163 | 17538 ft | 413 kts | 91° |
| 2026-05-04 15:37 | 39.42640 | 3.08881 | 17630 ft | 415 kts | 91° |
| 2026-05-04 15:38 | 39.42665 | 3.12620 | 17742 ft | 416 kts | 91° |
| 2026-05-04 15:38 | 39.42689 | 3.16382 | 18110 ft | 421 kts | 91° |
| 2026-05-04 15:38 | 39.42712 | 3.20189 | 18826 ft | 424 kts | 91° |
| 2026-05-04 15:38 | 39.42931 | 3.23965 | 19422 ft | 432 kts | 81° |
| 2026-05-04 15:39 | 39.43799 | 3.27708 | 20003 ft | 439 kts | 66° |
| 2026-05-04 15:39 | 39.45265 | 3.31195 | 20574 ft | 444 kts | 58° |
| 2026-05-04 15:39 | 39.48498 | 3.38160 | 21720 ft | 455 kts | 58° |
| 2026-05-04 15:40 | 39.50117 | 3.41669 | 22282 ft | 461 kts | 58° |
| 2026-05-04 15:40 | 39.51769 | 3.45262 | 22839 ft | 467 kts | 59° |
| 2026-05-04 15:40 | 39.53437 | 3.48898 | 23430 ft | 471 kts | 59° |
| 2026-05-04 15:40 | 39.55118 | 3.52569 | 23952 ft | 475 kts | 59° |
| 2026-05-04 15:41 | 39.56815 | 3.56278 | 24464 ft | 479 kts | 59° |
| 2026-05-04 15:41 | 39.58523 | 3.60017 | 24957 ft | 483 kts | 59° |
| 2026-05-04 15:41 | 39.60216 | 3.63726 | 25424 ft | 486 kts | 60° |
| 2026-05-04 15:41 | 39.61944 | 3.67518 | 25908 ft | 489 kts | 60° |
| 2026-05-04 15:42 | 39.63682 | 3.71336 | 26379 ft | 493 kts | 60° |
| 2026-05-04 15:42 | 39.65433 | 3.75186 | 26833 ft | 496 kts | 60° |
| 2026-05-04 15:42 | 39.67195 | 3.79068 | 27278 ft | 500 kts | 60° |
| 2026-05-04 15:42 | 39.68971 | 3.82982 | 27747 ft | 502 kts | 60° |
| 2026-05-04 15:43 | 39.70721 | 3.86846 | 28167 ft | 505 kts | 61° |
| 2026-05-04 15:43 | 39.72513 | 3.90805 | 28577 ft | 508 kts | 61° |
| 2026-05-04 15:43 | 39.74312 | 3.94787 | 28988 ft | 512 kts | 61° |
| 2026-05-04 15:43 | 39.76123 | 3.98799 | 29298 ft | 516 kts | 62° |
| 2026-05-04 15:44 | 39.77943 | 4.02837 | 29695 ft | 519 kts | 62° |
| 2026-05-04 15:44 | 39.79774 | 4.06904 | 30068 ft | 522 kts | 62° |
| 2026-05-04 15:44 | 39.81610 | 4.10989 | 30411 ft | 524 kts | 62° |
| 2026-05-04 15:44 | 39.83494 | 4.15071 | 30760 ft | 527 kts | 57° |
| 2026-05-04 15:45 | 39.85820 | 4.18772 | 31112 ft | 530 kts | 44° |
| 2026-05-04 15:45 | 39.88632 | 4.21838 | 31601 ft | 525 kts | 31° |
| 2026-05-04 15:45 | 39.91745 | 4.24121 | 32113 ft | 517 kts | 19° |
| 2026-05-04 15:45 | 39.95130 | 4.25618 | 32555 ft | 508 kts | 7° |
| 2026-05-04 15:46 | 39.98602 | 4.26250 | 32949 ft | 499 kts | 355° |
| 2026-05-04 15:46 | 40.02066 | 4.26381 | 33381 ft | 496 kts | 354° |
| 2026-05-04 15:46 | 40.05511 | 4.26615 | 33868 ft | 497 kts | 358° |
| 2026-05-04 15:46 | 40.08959 | 4.27091 | 34275 ft | 497 kts | 1° |
| 2026-05-04 15:47 | 40.12341 | 4.27741 | 34656 ft | 497 kts | 3° |
| 2026-05-04 15:47 | 40.15752 | 4.28499 | 35022 ft | 496 kts | 4° |
| 2026-05-04 15:47 | 40.19154 | 4.29300 | 35361 ft | 496 kts | 4° |
| 2026-05-04 15:47 | 40.22550 | 4.30112 | 35661 ft | 496 kts | 4° |
| 2026-05-04 15:48 | 40.25947 | 4.30926 | 36020 ft | 494 kts | 4° |
| 2026-05-04 15:48 | 40.29320 | 4.31731 | 36356 ft | 492 kts | 4° |
| 2026-05-04 15:48 | 40.36048 | 4.33331 | 36994 ft | 490 kts | 4° |
| 2026-05-04 15:49 | 40.39399 | 4.34128 | 37309 ft | 488 kts | 4° |
| 2026-05-04 15:49 | 40.42747 | 4.34924 | 37552 ft | 489 kts | 4° |
| 2026-05-04 15:49 | 40.46049 | 4.35710 | 37820 ft | 488 kts | 4° |
| 2026-05-04 15:49 | 40.49394 | 4.36507 | 37913 ft | 486 kts | 4° |
| 2026-05-04 15:50 | 40.56040 | 4.38094 | 37925 ft | 485 kts | 4° |
| 2026-05-04 15:50 | 40.62690 | 4.39683 | 37924 ft | 485 kts | 4° |
| 2026-05-04 15:51 | 40.69348 | 4.41281 | 37928 ft | 485 kts | 4° |
| 2026-05-04 15:51 | 40.75954 | 4.42868 | 37927 ft | 485 kts | 4° |
| 2026-05-04 15:52 | 40.82605 | 4.44468 | 37947 ft | 485 kts | 4° |
| 2026-05-04 15:52 | 40.89270 | 4.46074 | 37926 ft | 486 kts | 4° |
| 2026-05-04 15:53 | 40.95936 | 4.47684 | 37932 ft | 486 kts | 4° |
| 2026-05-04 15:53 | 41.02556 | 4.49285 | 37928 ft | 487 kts | 4° |
| 2026-05-04 15:54 | 41.09246 | 4.50907 | 37920 ft | 488 kts | 4° |
| 2026-05-04 15:54 | 41.15930 | 4.52536 | 37920 ft | 488 kts | 4° |
| 2026-05-04 15:55 | 41.22579 | 4.54160 | 37927 ft | 488 kts | 4° |
| 2026-05-04 15:55 | 41.29274 | 4.55798 | 37919 ft | 489 kts | 4° |
| 2026-05-04 15:56 | 41.35981 | 4.57442 | 37898 ft | 489 kts | 4° |
| 2026-05-04 15:56 | 41.42661 | 4.59086 | 37921 ft | 487 kts | 4° |
| 2026-05-04 15:57 | 41.49291 | 4.60716 | 37923 ft | 489 kts | 4° |
| 2026-05-04 15:57 | 41.55995 | 4.62369 | 37925 ft | 489 kts | 4° |
| 2026-05-04 15:58 | 41.62691 | 4.64026 | 37923 ft | 489 kts | 4° |
| 2026-05-04 15:58 | 41.69373 | 4.65852 | 37944 ft | 495 kts | 12° |
| 2026-05-04 15:59 | 41.72609 | 4.67582 | 37929 ft | 503 kts | 23° |
| 2026-05-04 15:59 | 41.75569 | 4.70007 | 37925 ft | 508 kts | 34° |
| 2026-05-04 15:59 | 41.80773 | 4.76481 | 37927 ft | 511 kts | 43° |
| 2026-05-04 16:00 | 41.85847 | 4.83175 | 37927 ft | 511 kts | 42° |
| 2026-05-04 16:00 | 41.90914 | 4.89879 | 37944 ft | 511 kts | 43° |
| 2026-05-04 16:01 | 41.95941 | 4.96553 | 37916 ft | 510 kts | 43° |
| 2026-05-04 16:01 | 42.00962 | 5.03239 | 37942 ft | 507 kts | 43° |
| 2026-05-04 16:02 | 42.05989 | 5.09946 | 37938 ft | 508 kts | 43° |
| 2026-05-04 16:03 | 42.13496 | 5.19992 | 37950 ft | 505 kts | 43° |
| 2026-05-04 16:03 | 42.18461 | 5.26656 | 37950 ft | 506 kts | 43° |
| 2026-05-04 16:04 | 42.23449 | 5.33366 | 37939 ft | 506 kts | 43° |
| 2026-05-04 16:04 | 42.30930 | 5.43462 | 37962 ft | 506 kts | 43° |
| 2026-05-04 16:05 | 42.35876 | 5.50156 | 37960 ft | 505 kts | 43° |
| 2026-05-04 16:06 | 42.43317 | 5.60256 | 37948 ft | 503 kts | 43° |
| 2026-05-04 16:07 | 42.53205 | 5.73734 | 37977 ft | 508 kts | 43° |
| 2026-05-04 16:08 | 42.63119 | 5.87313 | 37991 ft | 507 kts | 43° |
| 2026-05-04 16:09 | 42.75478 | 6.04331 | 37997 ft | 507 kts | 43° |
| 2026-05-04 16:10 | 42.85380 | 6.17990 | 38015 ft | 505 kts | 40° |
| 2026-05-04 16:11 | 42.96068 | 6.30284 | 38018 ft | 503 kts | 37° |
| 2026-05-04 16:12 | 43.11270 | 6.47798 | 38011 ft | 504 kts | 37° |
| 2026-05-04 16:13 | 43.21785 | 6.60450 | 38029 ft | 507 kts | 45° |
| 2026-05-04 16:14 | 43.30289 | 6.75968 | 38032 ft | 509 kts | 52° |
| 2026-05-04 16:16 | 43.40636 | 6.95614 | 38047 ft | 507 kts | 52° |
| 2026-05-04 16:17 | 43.50941 | 7.15342 | 38048 ft | 508 kts | 52° |
| 2026-05-04 16:18 | 43.59168 | 7.31189 | 38039 ft | 508 kts | 53° |